Time;durP1;ratioP1;P1;durP2;ratioP2;P2;SDS_P1;SDS_P2;PMS_P1;PMS_P2;Temp;Humidity;BMP_temperature;BMP_pressure;BME280_temperature;BME280_humidity;BME280_pressure;Samples;Min_cycle;Max_cycle;Signal;HPM_P1;HPM_P2
2023/02/07 00:01:34;;;;;;;1.30;1.00;;;5.80;90.80;;;;;;5050204;28;20192;-70
2023/02/07 00:04:03;;;;;;;2.40;0.90;;;5.80;90.80;;;;;;5062247;28;20236;-68
2023/02/07 00:06:32;;;;;;;2.23;1.30;;;5.80;90.80;;;;;;5049574;28;20207;-70
2023/02/07 00:09:01;;;;;;;1.30;1.20;;;5.80;90.80;;;;;;5050969;28;20194;-70
2023/02/07 00:11:28;;;;;;;2.20;1.13;;;5.80;90.80;;;;;;5060332;28;20201;-70
2023/02/07 00:13:57;;;;;;;2.90;1.40;;;5.70;90.80;;;;;;5061972;28;20199;-69
2023/02/07 00:16:25;;;;;;;5.10;1.90;;;5.70;90.80;;;;;;5054222;28;20197;-70
2023/02/07 00:18:53;;;;;;;1.87;1.30;;;5.70;90.80;;;;;;5035022;28;20612;-69
2023/02/07 00:21:23;;;;;;;2.97;1.30;;;5.70;90.90;;;;;;5035014;28;20207;-69
2023/02/07 00:23:51;;;;;;;3.43;1.10;;;5.80;90.90;;;;;;5058438;28;20202;-69
2023/02/07 00:26:20;;;;;;;0.97;0.80;;;5.80;91.20;;;;;;5059397;28;20203;-69
2023/02/07 00:28:48;;;;;;;2.30;1.20;;;5.80;90.90;;;;;;5055645;28;20368;-70
2023/02/07 00:31:19;;;;;;;2.03;1.30;;;5.80;90.90;;;;;;5032629;28;20396;-69
2023/02/07 00:33:47;;;;;;;1.20;1.10;;;5.80;90.90;;;;;;5029540;28;20205;-70
2023/02/07 00:36:18;;;;;;;1.47;1.07;;;5.80;90.90;;;;;;5052757;28;20200;-69
2023/02/07 00:38:47;;;;;;;2.33;1.30;;;5.70;90.70;;;;;;5052000;28;20190;-70
2023/02/07 00:41:17;;;;;;;1.77;1.03;;;5.70;90.80;;;;;;5053988;28;20209;-69
2023/02/07 00:43:45;;;;;;;1.33;1.00;;;5.70;90.80;;;;;;5053173;28;20676;-69
2023/02/07 00:46:13;;;;;;;2.47;1.17;;;5.70;90.80;;;;;;5052664;28;20205;-70
2023/02/07 00:48:40;;;;;;;4.10;1.40;;;5.70;90.80;;;;;;5049632;28;20348;-69
2023/02/07 00:51:09;;;;;;;3.87;1.43;;;5.60;90.80;;;;;;5053504;28;20214;-68
2023/02/07 00:53:38;;;;;;;1.80;1.53;;;5.60;90.80;;;;;;5032238;28;20292;-70
2023/02/07 00:56:07;;;;;;;1.50;1.30;;;5.60;90.90;;;;;;5062499;28;20292;-69
2023/02/07 00:58:35;;;;;;;1.87;1.30;;;5.60;91.00;;;;;;5057689;28;20350;-69
2023/02/07 01:01:02;;;;;;;1.73;1.43;;;5.60;91.00;;;;;;5033775;28;20217;-69
2023/02/07 01:03:29;;;;;;;1.93;1.00;;;5.60;91.00;;;;;;5056492;28;20679;-70
2023/02/07 01:05:56;;;;;;;1.60;1.10;;;5.60;91.00;;;;;;5045953;28;21065;-69
2023/02/07 01:08:26;;;;;;;1.00;0.90;;;5.60;91.10;;;;;;5039302;28;20210;-70
2023/02/07 01:10:53;;;;;;;1.30;1.10;;;5.60;91.00;;;;;;5057418;28;20542;-70
2023/02/07 01:13:22;;;;;;;2.00;0.90;;;5.60;91.10;;;;;;5061685;28;20202;-69
2023/02/07 01:15:50;;;;;;;0.83;0.83;;;5.60;91.10;;;;;;5059801;28;20286;-70
2023/02/07 01:18:17;;;;;;;1.33;1.00;;;5.60;91.10;;;;;;5056937;28;20283;-69
2023/02/07 01:20:44;;;;;;;2.00;0.93;;;5.60;91.10;;;;;;5059167;28;20196;-69
2023/02/07 01:23:12;;;;;;;1.13;0.80;;;5.60;91.10;;;;;;5057021;28;20211;-69
2023/02/07 01:25:40;;;;;;;1.13;1.00;;;5.60;91.10;;;;;;5059932;28;20194;-69
2023/02/07 01:28:07;;;;;;;1.23;0.70;;;5.70;91.20;;;;;;5058118;28;20260;-70
2023/02/07 01:30:38;;;;;;;1.73;0.83;;;5.70;91.10;;;;;;5062668;28;20205;-70
2023/02/07 01:33:05;;;;;;;1.77;0.87;;;5.70;91.10;;;;;;5057793;28;20203;-69
2023/02/07 01:35:33;;;;;;;0.93;0.70;;;5.90;91.20;;;;;;5037791;28;20206;-70
2023/02/07 01:38:01;;;;;;;2.50;0.90;;;5.80;91.20;;;;;;5059125;28;20204;-70
2023/02/07 01:40:29;;;;;;;1.00;0.80;;;5.80;91.20;;;;;;5053382;28;20202;-70
2023/02/07 01:42:57;;;;;;;1.07;0.97;;;5.80;91.10;;;;;;5049596;28;20199;-70
2023/02/07 01:45:29;;;;;;;1.20;0.90;;;5.80;91.10;;;;;;5056900;28;20198;-69
2023/02/07 01:48:02;;;;;;;1.50;1.00;;;5.80;91.10;;;;;;5054545;28;20199;-70
2023/02/07 01:50:29;;;;;;;0.73;0.73;;;5.80;91.10;;;;;;5057851;28;20197;-69
2023/02/07 01:53:00;;;;;;;2.27;0.90;;;5.80;91.10;;;;;;5055851;28;20219;-69
2023/02/07 01:55:32;;;;;;;0.83;0.80;;;5.80;91.10;;;;;;5028305;28;20651;-70
2023/02/07 01:58:02;;;;;;;2.70;1.23;;;5.70;91.10;;;;;;5051342;28;20215;-70
2023/02/07 02:00:30;;;;;;;1.20;0.90;;;5.70;91.20;;;;;;5039234;28;20642;-70
2023/02/07 02:02:59;;;;;;;1.93;1.10;;;5.70;91.20;;;;;;5038261;28;20782;-71
2023/02/07 02:05:29;;;;;;;1.13;1.00;;;5.80;91.20;;;;;;5044400;28;20198;-70
2023/02/07 02:07:56;;;;;;;1.00;0.90;;;5.80;91.20;;;;;;5053750;28;20202;-69
2023/02/07 02:10:29;;;;;;;1.30;1.00;;;5.70;91.10;;;;;;5055260;28;20198;-70
2023/02/07 02:13:21;;;;;;;3.27;1.10;;;5.70;91.20;;;;;;5051043;28;20211;-69
2023/02/07 02:15:55;;;;;;;0.90;0.90;;;5.60;91.50;;;;;;5055239;28;20198;-69
2023/02/07 02:18:51;;;;;;;3.60;1.27;;;5.60;91.20;;;;;;5051497;28;20195;-70
2023/02/07 02:21:45;;;;;;;1.10;1.00;;;5.60;91.20;;;;;;5046218;28;20200;-70
2023/02/07 02:24:50;;;;;;;1.97;1.10;;;5.60;91.30;;;;;;5051460;28;20208;-71
2023/02/07 02:27:31;;;;;;;1.47;0.80;;;5.60;91.30;;;;;;5049185;28;20194;-70
2023/02/07 02:30:30;;;;;;;1.47;0.87;;;5.60;91.20;;;;;;5051935;28;20228;-71
2023/02/07 02:33:14;;;;;;;1.17;0.70;;;5.60;91.20;;;;;;5048112;28;20554;-71
2023/02/07 02:35:50;;;;;;;1.63;0.80;;;5.70;91.20;;;;;;5056650;28;20193;-70
2023/02/07 02:38:25;;;;;;;0.93;0.60;;;5.70;91.20;;;;;;5058177;28;20200;-71
2023/02/07 02:40:58;;;;;;;0.63;0.63;;;5.70;91.20;;;;;;5072090;28;20204;-70
2023/02/07 02:43:34;;;;;;;1.17;0.97;;;5.70;91.20;;;;;;5056940;28;20209;-70
2023/02/07 02:46:06;;;;;;;3.27;0.90;;;5.70;91.20;;;;;;5051734;28;20583;-70
2023/02/07 02:48:35;;;;;;;0.93;0.80;;;5.60;91.20;;;;;;5051572;28;20259;-71
2023/02/07 02:51:03;;;;;;;2.23;0.90;;;5.60;91.30;;;;;;5067977;28;20715;-71
2023/02/07 02:53:31;;;;;;;1.50;0.87;;;5.60;91.30;;;;;;5058649;28;20222;-71
2023/02/07 02:56:37;;;;;;;1.23;0.90;;;5.60;91.40;;;;;;5051749;28;20320;-70
2023/02/07 02:59:22;;;;;;;1.63;0.80;;;5.60;91.40;;;;;;5066951;28;20279;-71
2023/02/07 03:01:56;;;;;;;2.83;0.97;;;5.60;91.40;;;;;;5057696;28;20194;-70
2023/02/07 03:04:51;;;;;;;3.63;1.20;;;5.60;91.40;;;;;;5054804;28;20217;-70
2023/02/07 03:07:34;;;;;;;2.07;1.30;;;5.60;91.40;;;;;;5033075;28;20201;-70
2023/02/07 03:10:08;;;;;;;1.30;1.20;;;5.60;91.40;;;;;;5056264;28;20188;-70
2023/02/07 03:12:43;;;;;;;1.67;1.10;;;5.60;91.40;;;;;;5056044;28;20703;-70
2023/02/07 03:15:20;;;;;;;1.57;1.00;;;5.60;91.50;;;;;;5058470;28;20201;-70
2023/02/07 03:17:53;;;;;;;1.30;0.80;;;5.60;91.40;;;;;;5034810;28;20284;-71
2023/02/07 03:20:27;;;;;;;1.30;0.90;;;5.60;91.40;;;;;;5053045;28;20210;-71
2023/02/07 03:22:57;;;;;;;1.17;0.90;;;5.60;91.40;;;;;;5056461;28;20202;-70
2023/02/07 03:25:25;;;;;;;1.17;0.73;;;5.60;91.40;;;;;;5051946;28;20221;-71
2023/02/07 03:27:54;;;;;;;2.43;1.00;;;5.60;91.40;;;;;;5060118;28;20217;-71
2023/02/07 03:30:23;;;;;;;1.50;1.10;;;5.60;91.50;;;;;;5054903;28;20200;-70
2023/02/07 03:32:54;;;;;;;0.70;0.70;;;5.60;91.50;;;;;;5057177;28;20707;-70
2023/02/07 03:35:26;;;;;;;1.43;0.73;;;5.50;91.40;;;;;;5043494;28;20193;-70
2023/02/07 03:37:55;;;;;;;1.63;1.07;;;5.50;91.50;;;;;;5056269;28;20195;-71
2023/02/07 03:40:25;;;;;;;1.10;0.80;;;5.50;91.60;;;;;;5054110;28;20201;-70
2023/02/07 03:42:57;;;;;;;1.50;0.57;;;5.50;91.50;;;;;;5057838;28;20190;-70
2023/02/07 03:45:24;;;;;;;1.77;1.00;;;5.50;91.80;;;;;;5059610;28;20190;-70
2023/02/07 03:47:51;;;;;;;0.50;0.50;;;5.50;91.50;;;;;;5055780;28;20216;-70
2023/02/07 03:50:18;;;;;;;1.17;0.90;;;5.50;91.50;;;;;;5053804;28;20193;-70
2023/02/07 03:52:47;;;;;;;3.17;1.07;;;5.50;91.50;;;;;;5057428;28;20197;-70
2023/02/07 03:55:14;;;;;;;2.07;1.07;;;5.50;91.40;;;;;;5058590;28;20228;-70
2023/02/07 03:57:41;;;;;;;3.80;1.37;;;5.40;91.40;;;;;;5050195;28;20191;-71
2023/02/07 04:00:10;;;;;;;3.20;0.90;;;5.40;91.40;;;;;;5056975;28;20204;-70
2023/02/07 04:02:40;;;;;;;1.07;0.73;;;5.40;91.50;;;;;;5050237;28;20225;-69
2023/02/07 04:05:08;;;;;;;0.73;0.70;;;5.40;91.50;;;;;;5052126;28;20199;-70
2023/02/07 04:07:35;;;;;;;1.20;0.80;;;5.40;91.50;;;;;;5058285;28;20198;-70
2023/02/07 04:10:04;;;;;;;1.53;0.90;;;5.40;91.50;;;;;;5060169;28;20198;-71
2023/02/07 04:12:32;;;;;;;3.33;0.90;;;5.40;91.50;;;;;;5054653;28;20205;-70
2023/02/07 04:14:59;;;;;;;2.20;1.10;;;5.40;91.50;;;;;;5039313;28;20271;-71
2023/02/07 04:17:27;;;;;;;2.37;0.73;;;5.30;91.50;;;;;;5055955;28;20210;-71
2023/02/07 04:19:54;;;;;;;1.17;0.67;;;5.30;91.50;;;;;;5063058;28;20189;-71
2023/02/07 04:22:21;;;;;;;0.70;0.70;;;5.30;91.50;;;;;;5057138;28;20196;-72
2023/02/07 04:24:49;;;;;;;1.13;0.70;;;5.30;91.50;;;;;;5060599;28;20205;-70
2023/02/07 04:27:17;;;;;;;1.00;0.83;;;5.30;91.50;;;;;;5056514;28;20526;-71
2023/02/07 04:29:44;;;;;;;1.50;0.80;;;5.30;91.60;;;;;;5056593;28;20189;-71
2023/02/07 04:32:11;;;;;;;1.67;0.83;;;5.30;91.60;;;;;;5056819;28;20214;-71
2023/02/07 04:34:38;;;;;;;1.50;0.97;;;5.30;91.60;;;;;;5064919;28;20271;-70
2023/02/07 04:37:06;;;;;;;1.03;0.70;;;5.30;91.60;;;;;;5059014;28;20205;-70
2023/02/07 04:39:33;;;;;;;0.77;0.73;;;5.30;91.60;;;;;;5058517;28;20194;-71
2023/02/07 04:42:00;;;;;;;1.83;0.80;;;5.30;91.60;;;;;;5054600;28;20197;-70
2023/02/07 04:44:28;;;;;;;0.60;0.60;;;5.30;91.60;;;;;;5060721;28;20203;-71
2023/02/07 04:46:55;;;;;;;1.20;0.77;;;5.20;91.50;;;;;;5058513;28;20536;-70
2023/02/07 04:49:23;;;;;;;0.73;0.70;;;5.20;91.50;;;;;;5057213;28;20207;-71
2023/02/07 04:51:50;;;;;;;2.93;1.13;;;5.20;91.60;;;;;;5057970;28;20197;-70
2023/02/07 04:54:17;;;;;;;2.83;1.00;;;5.20;91.60;;;;;;5059508;28;20210;-71
2023/02/07 04:56:44;;;;;;;1.17;0.87;;;5.20;91.60;;;;;;5059933;28;20194;-70
2023/02/07 04:59:11;;;;;;;0.70;0.70;;;5.10;91.60;;;;;;5062484;28;20280;-72
2023/02/07 05:01:40;;;;;;;0.87;0.80;;;5.10;91.60;;;;;;5050375;28;21155;-71
2023/02/07 05:04:07;;;;;;;0.80;0.80;;;5.10;91.60;;;;;;5058101;28;20229;-71
2023/02/07 05:06:34;;;;;;;0.93;0.70;;;5.10;91.60;;;;;;5059314;28;20247;-70
2023/02/07 05:09:01;;;;;;;2.07;1.00;;;5.10;91.70;;;;;;5038924;28;20201;-71
2023/02/07 05:11:28;;;;;;;0.97;0.70;;;5.10;91.70;;;;;;5056771;28;20664;-70
2023/02/07 05:13:55;;;;;;;1.10;0.77;;;5.10;91.70;;;;;;5055469;28;20216;-70
2023/02/07 05:16:23;;;;;;;1.43;0.70;;;5.10;91.70;;;;;;5055329;28;20204;-71
2023/02/07 05:18:51;;;;;;;1.23;0.77;;;5.10;91.70;;;;;;5042994;28;20226;-71
2023/02/07 05:21:18;;;;;;;0.53;0.50;;;5.10;91.70;;;;;;5052835;28;20206;-71
2023/02/07 05:23:46;;;;;;;2.43;0.90;;;5.10;91.70;;;;;;5057498;28;20614;-71
2023/02/07 05:26:13;;;;;;;0.87;0.77;;;5.10;91.70;;;;;;5052570;28;20222;-70
2023/02/07 05:28:40;;;;;;;2.57;1.40;;;5.10;91.70;;;;;;5055616;28;20201;-71
2023/02/07 05:31:07;;;;;;;1.77;1.00;;;5.10;91.70;;;;;;5054170;28;20197;-70
2023/02/07 05:33:34;;;;;;;1.20;0.67;;;5.10;91.70;;;;;;5055917;28;20707;-71
2023/02/07 05:36:04;;;;;;;3.23;1.13;;;5.10;91.70;;;;;;5064755;28;20942;-70
2023/02/07 05:38:31;;;;;;;1.40;1.30;;;5.10;91.70;;;;;;5061486;28;20194;-69
2023/02/07 05:40:58;;;;;;;1.10;1.00;;;5.10;91.80;;;;;;5061995;28;20201;-70
2023/02/07 05:43:26;;;;;;;1.23;1.10;;;5.10;91.80;;;;;;5061327;28;20251;-70
2023/02/07 05:45:53;;;;;;;1.30;1.20;;;5.10;91.80;;;;;;5043582;28;20591;-69
2023/02/07 05:48:20;;;;;;;4.07;1.73;;;5.00;91.80;;;;;;5059512;28;20200;-70
2023/02/07 05:50:48;;;;;;;3.17;1.90;;;5.00;91.80;;;;;;5055333;28;20198;-70
2023/02/07 05:53:17;;;;;;;3.23;1.60;;;5.00;91.80;;;;;;5053036;28;20233;-71
2023/02/07 05:55:44;;;;;;;3.43;1.87;;;4.90;91.80;;;;;;5055047;28;20273;-70
2023/02/07 05:58:11;;;;;;;3.67;1.97;;;4.90;91.80;;;;;;5032166;28;20668;-69
2023/02/07 06:00:39;;;;;;;2.83;1.77;;;4.90;91.80;;;;;;5059467;28;20215;-69
2023/02/07 06:03:06;;;;;;;5.13;2.30;;;4.90;91.90;;;;;;5053202;28;20225;-70
2023/02/07 06:05:34;;;;;;;4.77;2.57;;;4.90;91.90;;;;;;5054042;28;20200;-70
2023/02/07 06:08:01;;;;;;;4.50;2.33;;;4.90;91.90;;;;;;5058636;28;20211;-71
2023/02/07 06:10:29;;;;;;;5.20;2.37;;;4.90;91.90;;;;;;5056290;28;20197;-70
2023/02/07 06:12:56;;;;;;;4.27;2.27;;;4.80;91.90;;;;;;5053340;28;20899;-70
2023/02/07 06:15:24;;;;;;;7.47;3.57;;;4.80;91.90;;;;;;5054523;28;20683;-70
2023/02/07 06:17:51;;;;;;;6.97;3.23;;;4.80;92.00;;;;;;5053079;28;20284;-70
2023/02/07 06:20:18;;;;;;;7.17;3.20;;;4.70;92.00;;;;;;5034342;28;20201;-70
2023/02/07 06:22:45;;;;;;;7.13;3.20;;;4.70;92.00;;;;;;5058854;28;20213;-71
2023/02/07 06:25:12;;;;;;;4.43;2.90;;;4.70;92.00;;;;;;5057550;28;20194;-71
2023/02/07 06:27:41;;;;;;;6.60;3.00;;;4.70;92.20;;;;;;5053190;28;20220;-71
2023/02/07 06:30:11;;;;;;;5.03;2.60;;;4.70;92.00;;;;;;5059123;28;20197;-71
2023/02/07 06:32:38;;;;;;;5.53;2.70;;;4.70;92.10;;;;;;5052147;28;20189;-70
2023/02/07 06:35:07;;;;;;;5.67;2.77;;;4.70;92.10;;;;;;5052889;28;20197;-70
2023/02/07 06:37:34;;;;;;;20.83;8.43;;;4.60;92.00;;;;;;5061465;28;20545;-69
2023/02/07 06:40:02;;;;;;;22.90;8.90;;;4.60;92.10;;;;;;5058174;28;20196;-69
2023/02/07 06:42:29;;;;;;;18.67;7.63;;;4.50;92.10;;;;;;5045491;28;20189;-70
2023/02/07 06:44:57;;;;;;;14.13;6.90;;;4.50;92.20;;;;;;5060073;28;20196;-70
2023/02/07 06:47:25;;;;;;;15.67;6.90;;;4.50;92.20;;;;;;5059671;28;20185;-70
2023/02/07 06:49:52;;;;;;;14.00;7.13;;;4.60;92.20;;;;;;5035710;28;20194;-70
2023/02/07 06:52:19;;;;;;;15.87;7.83;;;4.60;92.20;;;;;;5056317;28;20782;-70
2023/02/07 06:54:46;;;;;;;10.73;5.87;;;4.60;92.20;;;;;;5051028;28;20752;-71
2023/02/07 06:57:13;;;;;;;17.57;7.23;;;4.60;92.20;;;;;;5056620;28;20197;-70
2023/02/07 06:59:41;;;;;;;15.67;6.67;;;4.60;92.20;;;;;;5057882;28;20201;-71
2023/02/07 07:02:11;;;;;;;15.37;7.30;;;4.70;92.30;;;;;;5051205;28;20189;-71
2023/02/07 07:04:38;;;;;;;13.83;6.43;;;4.70;92.20;;;;;;5025688;28;20296;-72
2023/02/07 07:07:05;;;;;;;11.50;6.00;;;4.70;92.20;;;;;;5037273;28;20190;-71
2023/02/07 07:09:33;;;;;;;11.63;5.90;;;4.70;92.20;;;;;;5045168;28;20198;-70
2023/02/07 07:12:03;;;;;;;10.63;5.33;;;4.70;92.10;;;;;;5048448;28;20220;-71
2023/02/07 07:14:31;;;;;;;10.80;5.27;;;4.70;92.20;;;;;;5046370;28;20209;-70
2023/02/07 07:16:59;;;;;;;8.80;4.50;;;4.70;92.20;;;;;;5041723;28;20202;-71
2023/02/07 07:19:27;;;;;;;10.63;4.77;;;4.80;92.20;;;;;;5049623;28;20206;-71
2023/02/07 07:21:55;;;;;;;9.90;4.67;;;4.80;92.10;;;;;;5023554;28;21004;-71
2023/02/07 07:24:22;;;;;;;14.00;5.27;;;4.70;92.10;;;;;;5052607;28;20211;-71
2023/02/07 07:26:49;;;;;;;14.40;5.67;;;4.80;92.10;;;;;;5049516;28;20206;-71
2023/02/07 07:29:16;;;;;;;11.07;5.17;;;4.80;92.10;;;;;;5042513;28;20193;-71
2023/02/07 07:31:44;;;;;;;13.13;5.33;;;4.70;92.00;;;;;;5047242;28;20321;-70
2023/02/07 07:34:11;;;;;;;13.60;6.27;;;4.70;92.00;;;;;;5047834;28;20209;-70
2023/02/07 07:36:40;;;;;;;14.40;6.03;;;4.70;92.10;;;;;;5047643;28;20204;-70
2023/02/07 07:39:07;;;;;;;17.43;7.40;;;4.70;92.10;;;;;;5058280;28;20185;-70
2023/02/07 07:41:35;;;;;;;19.27;7.43;;;4.70;92.10;;;;;;5050922;28;20201;-70
2023/02/07 07:44:02;;;;;;;15.60;6.10;;;4.80;92.10;;;;;;5057941;28;20185;-70
2023/02/07 07:46:29;;;;;;;39.47;15.43;;;4.80;92.10;;;;;;5050553;28;20566;-71
2023/02/07 07:48:56;;;;;;;39.67;15.20;;;4.80;92.00;;;;;;5051509;28;20206;-71
2023/02/07 07:51:23;;;;;;;40.03;14.90;;;4.80;92.10;;;;;;5057980;28;20290;-71
2023/02/07 07:53:52;;;;;;;35.73;13.77;;;4.80;92.10;;;;;;5064466;28;20217;-70
2023/02/07 07:56:21;;;;;;;32.57;13.97;;;4.80;92.10;;;;;;5054007;28;20507;-69
2023/02/07 07:58:53;;;;;;;30.40;12.20;;;4.80;92.20;;;;;;5044764;28;20200;-71
2023/02/07 08:01:20;;;;;;;32.40;13.27;;;4.80;92.30;;;;;;5053028;28;20201;-70
2023/02/07 08:03:53;;;;;;;42.20;16.03;;;4.80;92.30;;;;;;5054989;28;20726;-70
2023/02/07 08:06:31;;;;;;;32.50;13.50;;;4.90;92.40;;;;;;5040469;28;20210;-70
2023/02/07 08:09:27;;;;;;;33.77;12.97;;;4.90;92.40;;;;;;5055272;28;20657;-71
2023/02/07 08:11:54;;;;;;;30.30;12.27;;;5.00;92.40;;;;;;5054998;28;20197;-69
2023/02/07 08:14:21;;;;;;;30.97;12.57;;;5.10;92.40;;;;;;5038876;28;20217;-70
2023/02/07 08:16:48;;;;;;;22.83;11.07;;;5.20;92.30;;;;;;5035089;28;20668;-70
2023/02/07 08:19:15;;;;;;;20.03;9.80;;;5.30;92.30;;;;;;5059675;28;20221;-70
2023/02/07 08:21:42;;;;;;;28.77;10.27;;;5.30;92.30;;;;;;5054181;28;20185;-70
2023/02/07 08:24:10;;;;;;;19.63;9.47;;;5.40;92.30;;;;;;5051204;28;20200;-70
2023/02/07 08:26:38;;;;;;;23.03;10.30;;;5.50;92.30;;;;;;5060421;28;20643;-70
2023/02/07 08:29:06;;;;;;;26.77;10.63;;;5.50;92.30;;;;;;5055799;28;20560;-70
2023/02/07 08:31:33;;;;;;;22.00;9.63;;;5.60;92.20;;;;;;5052997;28;20250;-71
2023/02/07 08:34:00;;;;;;;22.43;9.63;;;5.60;92.10;;;;;;5056719;28;20218;-69
2023/02/07 08:36:27;;;;;;;21.87;9.13;;;5.60;92.10;;;;;;5052564;28;20199;-70
2023/02/07 08:38:54;;;;;;;25.53;9.27;;;5.60;92.30;;;;;;5045183;28;20202;-70
2023/02/07 08:41:21;;;;;;;18.37;7.80;;;5.60;92.00;;;;;;5061925;28;20206;-69
2023/02/07 08:43:50;;;;;;;15.90;6.80;;;5.60;92.10;;;;;;5054354;28;20212;-71
2023/02/07 08:46:17;;;;;;;12.40;6.27;;;5.70;92.10;;;;;;5050245;28;20193;-71
2023/02/07 08:48:44;;;;;;;15.57;6.97;;;5.70;92.20;;;;;;5054216;28;20205;-71
2023/02/07 08:51:11;;;;;;;16.47;7.97;;;6.20;93.70;;;;;;5052856;28;20552;-70
2023/02/07 08:53:39;;;;;;;18.40;9.00;;;5.90;92.00;;;;;;5031965;28;20223;-70
2023/02/07 08:56:07;;;;;;;18.80;8.47;;;6.10;92.00;;;;;;5041584;28;20286;-70
2023/02/07 08:58:34;;;;;;;19.37;8.30;;;6.30;91.90;;;;;;5050988;28;20644;-71
2023/02/07 09:01:03;;;;;;;25.50;8.83;;;6.40;91.50;;;;;;5047923;28;20297;-71
2023/02/07 09:03:30;;;;;;;19.80;9.27;;;6.40;91.40;;;;;;5051826;28;20234;-70
2023/02/07 09:05:58;;;;;;;20.70;9.83;;;6.50;91.30;;;;;;5044388;28;20198;-70
2023/02/07 09:08:25;;;;;;;21.20;9.53;;;6.60;91.20;;;;;;5033863;28;20281;-69
2023/02/07 09:10:54;;;;;;;26.07;9.20;;;6.60;91.00;;;;;;5055418;28;20194;-70
2023/02/07 09:13:21;;;;;;;30.60;11.17;;;6.60;91.00;;;;;;5057299;28;20203;-69
2023/02/07 09:15:54;;;;;;;39.83;16.10;;;6.70;91.00;;;;;;5036104;28;20262;-70
2023/02/07 09:18:23;;;;;;;36.70;15.07;;;6.60;90.90;;;;;;5059472;28;20273;-70
2023/02/07 09:20:50;;;;;;;38.37;16.00;;;6.60;90.90;;;;;;5056571;28;20220;-70
2023/02/07 09:23:18;;;;;;;38.40;13.60;;;6.60;91.00;;;;;;5050668;28;20196;-69
2023/02/07 09:25:46;;;;;;;33.53;12.37;;;6.50;91.10;;;;;;5051018;28;20214;-70
2023/02/07 09:28:13;;;;;;;30.17;11.87;;;6.50;91.20;;;;;;5046360;28;20671;-71
2023/02/07 09:30:42;;;;;;;33.03;12.10;;;6.50;91.20;;;;;;5057330;28;20630;-70
2023/02/07 09:33:09;;;;;;;30.47;12.33;;;6.70;91.40;;;;;;5057815;28;20204;-70
2023/02/07 09:35:38;;;;;;;23.50;10.43;;;6.90;91.10;;;;;;5034306;28;20311;-70
2023/02/07 09:38:06;;;;;;;28.77;11.57;;;7.00;91.10;;;;;;5060006;28;20200;-69
2023/02/07 09:40:34;;;;;;;29.83;12.27;;;7.10;91.00;;;;;;5056065;28;20207;-70
2023/02/07 09:43:11;;;;;;;30.03;11.27;;;7.20;90.70;;;;;;5041185;28;20205;-69
2023/02/07 09:45:42;;;;;;;23.43;10.47;;;7.20;90.50;;;;;;5055446;28;20192;-69
2023/02/07 09:48:18;;;;;;;22.67;10.17;;;7.40;90.70;;;;;;5027988;28;20199;-70
2023/02/07 09:50:50;;;;;;;22.50;10.50;;;7.70;90.40;;;;;;5047639;28;20244;-70
2023/02/07 09:53:23;;;;;;;22.57;9.60;;;8.00;90.10;;;;;;5051189;28;20681;-71
2023/02/07 09:55:54;;;;;;;17.47;8.20;;;8.20;90.10;;;;;;5058087;28;20208;-71
2023/02/07 09:58:30;;;;;;;11.20;5.47;;;8.60;90.00;;;;;;5049752;28;20208;-70
2023/02/07 10:01:02;;;;;;;7.13;4.37;;;9.00;90.00;;;;;;5054108;28;20192;-70
2023/02/07 10:03:31;;;;;;;6.07;3.50;;;9.30;89.30;;;;;;5043465;28;20228;-70
2023/02/07 10:06:02;;;;;;;4.17;2.73;;;9.60;89.10;;;;;;5046027;28;20189;-69
2023/02/07 10:08:31;;;;;;;4.60;2.40;;;9.80;88.60;;;;;;5052135;28;20194;-70
2023/02/07 10:11:10;;;;;;;4.20;2.33;;;10.00;87.10;;;;;;5053897;28;20256;-70
2023/02/07 10:13:58;;;;;;;2.20;2.00;;;10.10;87.10;;;;;;5049588;28;20245;-70
2023/02/07 10:16:46;;;;;;;2.73;1.80;;;9.90;87.90;;;;;;5050617;28;20257;-69
2023/02/07 10:19:25;;;;;;;4.40;2.03;;;9.80;87.90;;;;;;5049848;28;20278;-70
2023/02/07 10:22:03;;;;;;;5.57;2.30;;;9.50;87.90;;;;;;5051954;28;20724;-70
2023/02/07 10:24:55;;;;;;;1.97;1.77;;;9.40;88.10;;;;;;5053422;28;20193;-69
2023/02/07 10:27:29;;;;;;;2.40;1.87;;;9.20;88.30;;;;;;5048164;28;20189;-69
2023/02/07 10:30:03;;;;;;;2.93;1.70;;;9.10;88.40;;;;;;5056131;28;20189;-68
2023/02/07 10:32:33;;;;;;;3.60;1.87;;;9.00;88.30;;;;;;5052499;28;20198;-69
2023/02/07 10:35:07;;;;;;;2.83;2.00;;;8.80;88.30;;;;;;5053070;28;20201;-70
2023/02/07 10:37:39;;;;;;;2.43;2.00;;;8.70;88.50;;;;;;5047619;28;20642;-70
2023/02/07 10:40:13;;;;;;;3.77;1.97;;;8.60;88.40;;;;;;5045743;28;20275;-70
2023/02/07 10:42:42;;;;;;;2.47;2.07;;;8.50;88.40;;;;;;5049387;28;20242;-70
2023/02/07 10:45:14;;;;;;;2.67;2.00;;;8.40;88.60;;;;;;5046754;28;20200;-69
2023/02/07 10:47:42;;;;;;;3.70;2.10;;;8.30;88.80;;;;;;5047460;28;20254;-70
2023/02/07 10:50:13;;;;;;;2.90;2.30;;;8.20;88.90;;;;;;5045542;28;20199;-70
2023/02/07 10:52:47;;;;;;;4.07;2.00;;;8.10;89.00;;;;;;5047410;28;20191;-70
2023/02/07 10:55:18;;;;;;;2.87;2.00;;;8.00;89.10;;;;;;5049817;28;20629;-70
2023/02/07 10:57:53;;;;;;;4.33;2.00;;;7.90;89.20;;;;;;5053158;28;20267;-70
2023/02/07 11:00:26;;;;;;;3.63;1.60;;;7.80;89.50;;;;;;5065055;28;20541;-69
2023/02/07 11:02:54;;;;;;;2.53;1.83;;;7.70;89.70;;;;;;5042035;28;20306;-69
2023/02/07 11:05:54;;;;;;;5.20;2.20;;;7.60;89.80;;;;;;5029328;28;20198;-69
2023/02/07 11:08:25;;;;;;;3.83;2.07;;;7.60;90.10;;;;;;5041951;28;20214;-70
2023/02/07 11:10:54;;;;;;;4.13;2.00;;;7.60;90.50;;;;;;5046232;28;20194;-69
2023/02/07 11:13:24;;;;;;;3.33;2.23;;;7.50;90.30;;;;;;5044064;28;20195;-71
2023/02/07 11:15:58;;;;;;;5.80;2.20;;;7.50;90.30;;;;;;5039189;28;20208;-71
2023/02/07 11:18:42;;;;;;;4.83;2.20;;;7.50;90.40;;;;;;5045223;28;20197;-72
2023/02/07 11:21:26;;;;;;;4.10;2.20;;;7.40;90.30;;;;;;5062765;28;20313;-71
2023/02/07 11:23:59;;;;;;;4.37;2.40;;;7.40;90.40;;;;;;5057882;28;20185;-71
2023/02/07 11:26:27;;;;;;;9.13;2.30;;;7.40;90.60;;;;;;5057011;28;20208;-70
2023/02/07 11:29:04;;;;;;;6.73;2.60;;;7.30;90.60;;;;;;5059327;28;20201;-70
2023/02/07 11:31:36;;;;;;;6.20;2.50;;;7.30;90.80;;;;;;5054437;28;20261;-69
2023/02/07 11:34:40;;;;;;;3.73;1.73;;;7.20;90.80;;;;;;5060743;28;20267;-70
2023/02/07 11:37:21;;;;;;;2.43;1.70;;;7.20;90.90;;;;;;5055510;28;20924;-71
2023/02/07 11:39:51;;;;;;;2.33;1.87;;;7.30;90.90;;;;;;5064384;28;20667;-71
2023/02/07 11:42:19;;;;;;;2.70;1.70;;;7.30;90.90;;;;;;5058195;28;20197;-70
2023/02/07 11:44:48;;;;;;;1.93;1.50;;;7.30;90.90;;;;;;5053622;28;20190;-70
2023/02/07 11:47:18;;;;;;;5.50;2.27;;;7.30;91.30;;;;;;5056608;28;20205;-71
2023/02/07 11:49:51;;;;;;;3.83;2.17;;;7.30;91.00;;;;;;5033872;28;20224;-71
2023/02/07 11:52:19;;;;;;;2.57;1.83;;;7.30;91.00;;;;;;5038022;28;20197;-70
2023/02/07 11:54:54;;;;;;;2.80;1.87;;;7.30;91.00;;;;;;5058452;28;20304;-71
2023/02/07 11:57:23;;;;;;;3.93;2.20;;;7.40;91.10;;;;;;5058789;28;20594;-71
2023/02/07 12:00:00;;;;;;;4.53;1.90;;;7.30;91.00;;;;;;5051771;28;20194;-71
2023/02/07 12:02:29;;;;;;;2.27;1.80;;;7.30;91.10;;;;;;5052533;28;20970;-70
2023/02/07 12:05:11;;;;;;;4.73;2.10;;;7.30;91.10;;;;;;5050119;28;20228;-70
2023/02/07 12:07:44;;;;;;;6.20;2.50;;;7.40;91.20;;;;;;5050104;28;20277;-71
2023/02/07 12:10:16;;;;;;;3.83;2.40;;;7.30;91.20;;;;;;5051481;28;20246;-70
2023/02/07 12:12:46;;;;;;;2.37;1.93;;;7.30;91.20;;;;;;5053668;28;20190;-70
2023/02/07 12:15:17;;;;;;;5.50;2.60;;;7.40;91.30;;;;;;5034177;28;20301;-70
2023/02/07 12:17:56;;;;;;;4.47;2.50;;;7.40;91.30;;;;;;5049958;28;20547;-70
2023/02/07 12:20:26;;;;;;;6.83;3.30;;;7.40;91.40;;;;;;5052900;28;20189;-70
2023/02/07 12:23:00;;;;;;;5.37;2.80;;;7.40;91.40;;;;;;5056570;28;20577;-70
2023/02/07 12:25:36;;;;;;;4.60;2.40;;;7.30;91.40;;;;;;5058850;28;20267;-70
2023/02/07 12:28:14;;;;;;;7.80;3.20;;;7.40;91.50;;;;;;5051949;28;20192;-70
2023/02/07 12:30:46;;;;;;;5.40;2.53;;;7.40;91.50;;;;;;5053196;28;20197;-70
2023/02/07 12:33:20;;;;;;;5.77;2.90;;;7.40;91.50;;;;;;5055207;28;20255;-70
2023/02/07 12:35:53;;;;;;;4.63;2.80;;;7.50;91.50;;;;;;5049954;28;20225;-71
2023/02/07 12:38:25;;;;;;;2.90;2.50;;;7.50;91.60;;;;;;5056652;28;20189;-70
2023/02/07 12:40:58;;;;;;;6.90;2.70;;;7.60;91.60;;;;;;5043478;28;20195;-70
2023/02/07 12:43:28;;;;;;;8.60;3.17;;;7.70;91.60;;;;;;5062175;28;20200;-70
2023/02/07 12:46:05;;;;;;;7.03;2.40;;;7.70;91.40;;;;;;5054781;28;20296;-70
2023/02/07 12:48:49;;;;;;;3.30;2.40;;;7.70;91.40;;;;;;5050007;28;20270;-71
2023/02/07 12:51:28;;;;;;;3.77;2.43;;;7.80;91.50;;;;;;5056265;28;20189;-70
2023/02/07 12:54:11;;;;;;;3.17;2.20;;;7.80;91.40;;;;;;5048006;28;20270;-70
2023/02/07 12:56:52;;;;;;;3.00;2.27;;;7.90;91.40;;;;;;5052786;28;20201;-71
2023/02/07 12:59:31;;;;;;;6.53;2.80;;;8.00;91.30;;;;;;5060649;28;20185;-70
2023/02/07 13:02:10;;;;;;;5.13;2.43;;;8.20;91.30;;;;;;5051404;28;20281;-70
2023/02/07 13:04:53;;;;;;;3.93;2.53;;;8.30;91.20;;;;;;5058852;28;20259;-70
2023/02/07 13:07:38;;;;;;;5.07;2.50;;;8.40;91.10;;;;;;5056964;28;20189;-69
2023/02/07 13:10:19;;;;;;;4.47;2.47;;;8.50;91.00;;;;;;5047006;28;20807;-70
2023/02/07 13:12:53;;;;;;;3.20;2.03;;;8.60;91.00;;;;;;5056944;28;20205;-70